createdAt,value
2022-11-17T00:01:54.651Z,2.35
2022-11-17T00:04:21.690Z,2.35
2022-11-17T00:06:48.422Z,2.08
2022-11-17T00:09:17.471Z,2.55
2022-11-17T00:12:04.142Z,2.42
2022-11-17T00:14:36.434Z,2.53
2022-11-17T00:17:06.370Z,2.95
2022-11-17T00:19:51.570Z,3.03
2022-11-17T00:22:18.554Z,3.45
2022-11-17T00:24:45.262Z,3.13
2022-11-17T00:27:12.456Z,3.38
2022-11-17T00:29:39.561Z,3.58
2022-11-17T00:32:29.896Z,3.88
2022-11-17T00:34:56.964Z,3.35
2022-11-17T00:37:24.338Z,3.75
2022-11-17T00:39:52.449Z,4.22
2022-11-17T00:42:20.852Z,4.15
2022-11-17T00:44:47.681Z,4.18
2022-11-17T00:47:14.510Z,4.45
2022-11-17T00:49:41.339Z,5.18
2022-11-17T00:52:09.630Z,4.82
2022-11-17T00:54:36.695Z,4.63
2022-11-17T00:57:03.611Z,4.63
2022-11-17T00:59:30.316Z,6.00
2022-11-17T01:01:57.119Z,4.15
2022-11-17T01:04:23.994Z,4.53
2022-11-17T01:06:50.847Z,4.38
2022-11-17T01:09:21.979Z,4.25
2022-11-17T01:11:51.374Z,4.00
2022-11-17T01:14:21.279Z,4.38
2022-11-17T01:16:48.122Z,4.50
2022-11-17T01:19:16.257Z,4.10
2022-11-17T01:21:43.305Z,4.40
2022-11-17T01:24:11.619Z,4.47
2022-11-17T01:26:39.316Z,4.78
2022-11-17T01:29:07.865Z,5.10
2022-11-17T01:31:38.066Z,5.25
2022-11-17T01:34:05.386Z,5.03
2022-11-17T01:36:53.104Z,5.25
2022-11-17T01:39:20.451Z,4.72
2022-11-17T01:41:47.344Z,5.15
2022-11-17T01:44:36.275Z,5.10
2022-11-17T01:47:28.786Z,3.97
2022-11-17T01:50:04.002Z,4.22
2022-11-17T01:52:31.870Z,4.72
2022-11-17T01:55:00.156Z,4.72
2022-11-17T01:57:45.652Z,4.10
2022-11-17T02:00:13.234Z,5.05
2022-11-17T02:02:41.885Z,4.68
2022-11-17T02:05:50.110Z,5.35
2022-11-17T02:08:18.857Z,3.63
2022-11-17T02:10:51.485Z,4.32
2022-11-17T02:13:20.402Z,4.97
2022-11-17T02:15:47.608Z,4.35
2022-11-17T02:18:16.354Z,4.47
2022-11-17T02:20:52.001Z,4.38
2022-11-17T02:23:46.596Z,3.92
2022-11-17T02:26:31.308Z,4.03
2022-11-17T02:29:16.198Z,3.72
2022-11-17T02:31:55.766Z,3.53
2022-11-17T02:34:32.753Z,4.03
2022-11-17T02:37:30.007Z,4.30
2022-11-17T02:40:33.116Z,3.90
2022-11-17T02:43:22.449Z,4.22
2022-11-17T02:46:00.059Z,4.07
2022-11-17T02:48:39.825Z,3.55
2022-11-17T02:51:12.096Z,3.90
2022-11-17T02:56:07.392Z,2.70
2022-11-17T02:58:34.360Z,3.88
2022-11-17T03:01:13.481Z,3.60
2022-11-17T03:03:51.226Z,3.35
2022-11-17T03:06:23.928Z,3.38
2022-11-17T03:08:52.037Z,3.50
2022-11-17T03:11:23.147Z,2.58
2022-11-17T03:14:08.808Z,3.58
2022-11-17T03:16:48.689Z,3.42
2022-11-17T03:19:26.122Z,2.88
2022-11-17T03:21:59.299Z,3.28
2022-11-17T03:24:31.149Z,3.60
2022-11-17T03:27:04.070Z,3.60
2022-11-17T03:29:33.569Z,3.50
2022-11-17T03:32:03.401Z,3.28
2022-11-17T03:34:35.654Z,3.53
2022-11-17T03:37:05.492Z,4.28
2022-11-17T03:39:35.946Z,3.53
2022-11-17T03:42:10.138Z,3.70
2022-11-17T03:44:42.219Z,4.22
2022-11-17T03:49:59.655Z,3.58
2022-11-17T03:52:29.654Z,3.50
2022-11-17T03:54:56.781Z,3.55
2022-11-17T03:57:40.040Z,3.20
2022-11-17T04:00:16.075Z,3.75
2022-11-17T04:02:44.894Z,3.60
2022-11-17T04:05:13.219Z,3.85
2022-11-17T04:07:45.210Z,3.10
2022-11-17T04:10:18.498Z,4.25
2022-11-17T04:13:04.244Z,3.22
2022-11-17T04:15:49.464Z,3.53
2022-11-17T04:18:16.102Z,3.72
2022-11-17T04:20:42.949Z,3.55
2022-11-17T04:23:15.036Z,4.03
2022-11-17T04:28:39.575Z,3.15
2022-11-17T04:31:14.023Z,3.17
2022-11-17T04:33:48.738Z,3.40
2022-11-17T04:36:18.050Z,3.92
2022-11-17T04:38:50.084Z,4.00
2022-11-17T04:41:36.692Z,3.80
2022-11-17T04:44:06.502Z,3.58
2022-11-17T04:46:34.707Z,4.13
2022-11-17T04:49:02.244Z,4.13
2022-11-17T04:51:30.271Z,3.72
2022-11-17T04:53:57.593Z,4.20
2022-11-17T04:56:25.089Z,4.55
2022-11-17T04:58:52.234Z,4.07
2022-11-17T05:01:19.982Z,3.58
2022-11-17T05:04:01.470Z,4.57
2022-11-17T05:06:46.354Z,5.10
2022-11-17T05:09:15.639Z,5.47
2022-11-17T05:12:01.975Z,5.78
2022-11-17T05:14:30.065Z,6.22
2022-11-17T05:17:11.017Z,5.82
2022-11-17T05:19:46.416Z,6.57
2022-11-17T05:22:41.616Z,6.70
2022-11-17T05:25:08.934Z,7.05
2022-11-17T05:27:36.088Z,8.30
2022-11-17T05:30:04.327Z,8.35
2022-11-17T05:32:31.011Z,8.55
2022-11-17T05:34:57.868Z,8.88
2022-11-17T05:37:24.729Z,8.48
2022-11-17T05:39:51.346Z,8.50
2022-11-17T05:42:18.291Z,8.00
2022-11-17T05:44:45.003Z,9.02
2022-11-17T05:47:11.961Z,9.13
2022-11-17T05:49:38.612Z,10.13
2022-11-17T05:52:05.431Z,8.27
2022-11-17T05:54:32.213Z,9.30
2022-11-17T05:57:07.735Z,8.07
2022-11-17T05:59:43.465Z,9.60
2022-11-17T06:02:19.863Z,9.43
2022-11-17T06:04:49.331Z,8.57
2022-11-17T06:07:18.044Z,9.10
2022-11-17T06:09:46.342Z,8.48
2022-11-17T06:12:13.164Z,8.43
2022-11-17T06:14:39.956Z,9.05
2022-11-17T06:17:21.770Z,8.45
2022-11-17T06:19:54.896Z,8.80
2022-11-17T06:22:21.566Z,7.60
2022-11-17T06:24:48.412Z,9.63
2022-11-17T06:27:17.272Z,8.23
2022-11-17T06:29:45.389Z,8.93
2022-11-17T06:32:14.497Z,9.48
2022-11-17T06:34:43.718Z,8.57
2022-11-17T06:37:11.424Z,8.93
2022-11-17T06:39:38.320Z,9.68
2022-11-17T06:42:05.083Z,8.52
2022-11-17T06:44:31.780Z,9.82
2022-11-17T06:46:58.504Z,7.97
2022-11-17T06:49:25.153Z,8.95
2022-11-17T06:51:52.501Z,8.73
2022-11-17T06:54:19.300Z,9.30
2022-11-17T06:56:46.087Z,9.50
2022-11-17T06:59:12.716Z,8.43
2022-11-17T07:01:39.425Z,8.10
2022-11-17T07:04:06.764Z,8.90
2022-11-17T07:06:36.749Z,8.13
2022-11-17T07:09:05.056Z,8.18
2022-11-17T07:11:36.021Z,8.60
2022-11-17T07:14:03.672Z,8.40
2022-11-17T07:16:31.063Z,7.70
2022-11-17T07:18:59.215Z,8.00
2022-11-17T07:21:26.370Z,5.97
2022-11-17T07:23:53.110Z,7.28
2022-11-17T07:26:19.862Z,7.47
2022-11-17T07:28:46.619Z,8.05
2022-11-17T07:31:13.448Z,7.82
2022-11-17T07:33:40.084Z,7.38
2022-11-17T07:36:09.831Z,7.57
2022-11-17T07:38:38.708Z,7.35
2022-11-17T07:41:09.894Z,7.22
2022-11-17T07:43:37.203Z,7.22
2022-11-17T07:46:05.421Z,7.18
2022-11-17T07:48:32.786Z,5.82
2022-11-17T07:51:00.648Z,6.25
2022-11-17T07:53:27.836Z,6.32
2022-11-17T07:55:55.179Z,6.45
2022-11-17T07:58:21.899Z,6.25
2022-11-17T08:00:48.617Z,6.05
2022-11-17T08:03:15.483Z,5.85
2022-11-17T08:05:43.769Z,5.75
2022-11-17T08:08:10.630Z,6.20
2022-11-17T08:10:37.302Z,5.65
2022-11-17T08:13:04.034Z,7.10
2022-11-17T08:15:31.413Z,7.50
2022-11-17T08:18:00.106Z,6.80
2022-11-17T08:20:29.374Z,6.90
2022-11-17T08:22:56.333Z,8.05
2022-11-17T08:25:26.414Z,6.22
2022-11-17T08:27:57.705Z,6.88
2022-11-17T08:30:25.654Z,8.40
2022-11-17T08:32:53.846Z,7.47
2022-11-17T08:35:23.611Z,7.72
2022-11-17T08:37:50.336Z,6.60
2022-11-17T08:40:20.621Z,7.55
2022-11-17T08:42:59.114Z,7.60
2022-11-17T08:45:27.645Z,7.97
2022-11-17T08:47:56.263Z,7.65
2022-11-17T08:50:23.243Z,7.57
2022-11-17T08:52:50.093Z,8.48
2022-11-17T08:55:16.959Z,7.00
2022-11-17T08:57:43.950Z,6.47
2022-11-17T09:00:11.323Z,6.95
2022-11-17T09:02:38.671Z,6.10
2022-11-17T09:05:05.932Z,6.18
2022-11-17T09:07:35.053Z,6.25
2022-11-17T09:10:04.111Z,5.57
2022-11-17T09:12:30.816Z,6.70
2022-11-17T09:14:57.584Z,5.75
2022-11-17T09:17:24.203Z,6.60
2022-11-17T09:19:50.833Z,6.90
2022-11-17T09:22:17.512Z,5.65
2022-11-17T09:24:44.196Z,6.10
2022-11-17T09:27:10.971Z,5.68
2022-11-17T09:29:37.736Z,5.75
2022-11-17T09:32:04.662Z,7.28
2022-11-17T09:34:31.458Z,6.32
2022-11-17T09:36:58.227Z,6.05
2022-11-17T09:39:24.975Z,6.25
2022-11-17T09:41:54.324Z,5.60
2022-11-17T09:44:42.305Z,6.20
2022-11-17T09:47:18.178Z,4.82
2022-11-17T09:50:01.051Z,4.80
2022-11-17T09:52:49.495Z,4.78
2022-11-17T09:55:34.342Z,4.72
2022-11-17T09:58:07.095Z,4.43
2022-11-17T10:00:36.474Z,4.45
2022-11-17T10:03:10.079Z,5.65
2022-11-17T10:06:08.458Z,4.70
2022-11-17T10:08:42.719Z,4.65
2022-11-17T10:11:35.097Z,4.43
2022-11-17T10:14:07.839Z,4.18
2022-11-17T10:16:36.506Z,5.70
2022-11-17T10:19:18.911Z,4.05
2022-11-17T10:21:50.205Z,5.00
2022-11-17T10:24:42.076Z,4.63
2022-11-17T10:27:17.906Z,4.95
2022-11-17T10:30:01.193Z,4.90
2022-11-17T10:32:30.146Z,4.55
2022-11-17T10:35:12.347Z,4.93
2022-11-17T10:37:44.606Z,5.72
2022-11-17T10:40:25.287Z,4.95
2022-11-17T10:43:14.145Z,5.68
2022-11-17T10:45:44.988Z,5.70
2022-11-17T10:48:29.804Z,5.20
2022-11-17T10:51:01.460Z,4.85
2022-11-17T10:53:43.340Z,5.95
2022-11-17T10:56:15.873Z,6.13
2022-11-17T10:59:13.649Z,6.15
2022-11-17T11:01:43.816Z,6.30
2022-11-17T11:04:32.232Z,5.43
2022-11-17T11:07:14.252Z,6.45
2022-11-17T11:09:56.189Z,6.82
2022-11-17T11:12:44.984Z,7.10
2022-11-17T11:15:35.732Z,7.50
2022-11-17T11:18:11.396Z,6.18
2022-11-17T11:20:57.215Z,6.97
2022-11-17T11:23:34.822Z,7.88
2022-11-17T11:26:25.693Z,6.55
2022-11-17T11:29:22.468Z,6.22
2022-11-17T11:32:09.660Z,6.18
2022-11-17T11:34:57.867Z,5.45
2022-11-17T11:37:34.007Z,5.13
2022-11-17T11:40:15.359Z,5.38
2022-11-17T11:42:58.435Z,5.05
2022-11-17T11:45:40.165Z,5.53
2022-11-17T11:48:15.865Z,4.32
2022-11-17T11:50:47.468Z,5.10
2022-11-17T11:53:34.569Z,5.03
2022-11-17T11:56:13.561Z,5.28
2022-11-17T11:58:51.105Z,4.90
2022-11-17T12:01:20.538Z,4.68
2022-11-17T12:04:10.998Z,5.97
2022-11-17T12:07:05.404Z,5.53
2022-11-17T12:09:34.934Z,4.97
2022-11-17T12:12:08.512Z,5.88
2022-11-17T12:14:37.813Z,5.25
2022-11-17T12:17:18.557Z,5.80
2022-11-17T12:19:57.515Z,5.70
2022-11-17T12:22:30.365Z,4.82
2022-11-17T12:25:01.315Z,5.60
2022-11-17T12:27:34.096Z,5.30
2022-11-17T12:30:02.456Z,4.75
2022-11-17T12:32:44.530Z,5.78
2022-11-17T12:35:30.936Z,5.15
2022-11-17T12:38:12.867Z,5.47
2022-11-17T12:40:39.569Z,5.70
2022-11-17T12:43:33.006Z,6.03
2022-11-17T12:46:10.990Z,5.47
2022-11-17T12:48:39.949Z,4.50
2022-11-17T12:51:21.789Z,4.65
2022-11-17T12:54:05.289Z,5.50
2022-11-17T12:56:50.184Z,6.55
2022-11-17T12:59:42.545Z,4.75
2022-11-17T13:02:15.490Z,5.38
2022-11-17T13:04:49.807Z,5.22
2022-11-17T13:07:25.676Z,5.47
2022-11-17T13:09:57.990Z,5.25
2022-11-17T13:12:30.348Z,5.95
2022-11-17T13:14:59.317Z,5.50
2022-11-17T13:17:40.217Z,5.13
2022-11-17T13:20:24.280Z,5.68
2022-11-17T13:23:23.426Z,5.05
2022-11-17T13:25:51.090Z,5.63
2022-11-17T13:28:32.200Z,5.20
2022-11-17T13:31:00.686Z,5.18
2022-11-17T13:33:28.698Z,5.50
2022-11-17T13:36:18.538Z,6.03
2022-11-17T13:38:50.429Z,6.05
2022-11-17T13:41:18.923Z,5.45
2022-11-17T13:43:47.191Z,6.00
2022-11-17T13:46:15.290Z,5.13
2022-11-17T13:48:44.486Z,5.65
2022-11-17T13:51:38.858Z,5.68
2022-11-17T13:54:12.254Z,5.95
2022-11-17T13:56:49.258Z,5.25
2022-11-17T13:59:32.042Z,5.25
2022-11-17T14:02:17.195Z,4.72
2022-11-17T14:05:19.370Z,5.15
2022-11-17T14:07:46.873Z,5.70
2022-11-17T14:10:19.934Z,5.55
2022-11-17T14:13:02.518Z,5.45
2022-11-17T14:15:32.056Z,5.15
2022-11-17T14:18:01.951Z,5.97
2022-11-17T14:20:34.939Z,5.07
2022-11-17T14:23:08.542Z,6.05
2022-11-17T14:25:38.538Z,5.57
2022-11-17T14:28:11.873Z,4.68
2022-11-17T14:30:38.549Z,5.15
2022-11-17T14:33:10.475Z,4.70
2022-11-17T14:35:40.173Z,5.22
2022-11-17T14:38:10.414Z,5.47
2022-11-17T14:40:37.058Z,6.43
2022-11-17T14:43:03.790Z,5.13
2022-11-17T14:45:30.722Z,5.40
2022-11-17T14:47:57.369Z,5.65
2022-11-17T14:50:24.145Z,5.28
2022-11-17T14:52:50.743Z,5.43
2022-11-17T14:55:17.379Z,4.75
2022-11-17T14:57:44.000Z,4.60
2022-11-17T15:00:15.826Z,4.70
2022-11-17T15:02:46.217Z,5.40
2022-11-17T15:05:12.970Z,4.90
2022-11-17T15:07:39.733Z,5.68
2022-11-17T15:10:07.936Z,4.85
2022-11-17T15:12:34.986Z,5.30
2022-11-17T15:15:01.795Z,4.93
2022-11-17T15:17:29.095Z,5.60
2022-11-17T15:19:55.763Z,5.82
2022-11-17T15:22:22.634Z,6.10
2022-11-17T15:24:49.263Z,5.97
2022-11-17T15:27:16.250Z,5.80
2022-11-17T15:29:42.935Z,6.20
2022-11-17T15:32:10.648Z,7.22
2022-11-17T15:34:37.405Z,6.63
2022-11-17T15:37:04.259Z,6.32
2022-11-17T15:39:30.966Z,6.45
2022-11-17T15:41:57.586Z,6.28
2022-11-17T15:44:24.461Z,6.43
2022-11-17T15:46:51.089Z,6.10
2022-11-17T15:49:18.158Z,5.82
2022-11-17T15:51:45.666Z,6.70
2022-11-17T15:54:18.479Z,5.90
2022-11-17T15:56:47.164Z,6.47
2022-11-17T15:59:14.380Z,6.32
2022-11-17T16:01:41.733Z,6.40
2022-11-17T16:04:11.392Z,6.07
2022-11-17T16:06:40.107Z,6.40
2022-11-17T16:09:07.876Z,5.50
2022-11-17T16:11:35.111Z,6.13
2022-11-17T16:14:02.176Z,6.13
2022-11-17T16:16:34.354Z,5.30
2022-11-17T16:21:28.092Z,5.47
2022-11-17T16:23:56.789Z,6.13
2022-11-17T16:26:25.743Z,5.55
2022-11-17T16:28:59.944Z,6.13
2022-11-17T16:31:32.794Z,5.50
2022-11-17T16:34:11.486Z,6.43
2022-11-17T16:36:39.638Z,5.35
2022-11-17T16:39:08.626Z,5.97
2022-11-17T16:41:37.711Z,6.53
2022-11-17T16:44:11.787Z,6.28
2022-11-17T16:46:41.241Z,6.05
2022-11-17T16:49:10.937Z,6.85
2022-11-17T16:51:37.592Z,5.65
2022-11-17T16:54:06.696Z,5.82
2022-11-17T16:56:34.371Z,7.03
2022-11-17T16:59:01.182Z,5.20
2022-11-17T17:01:32.362Z,6.70
2022-11-17T17:04:01.307Z,6.50
2022-11-17T17:06:28.155Z,6.32
2022-11-17T17:09:04.645Z,6.82
2022-11-17T17:11:32.554Z,5.80
2022-11-17T17:14:04.714Z,6.18
2022-11-17T17:16:33.233Z,6.80
2022-11-17T17:19:02.144Z,6.68
2022-11-17T17:21:31.247Z,6.95
2022-11-17T17:23:58.242Z,6.35
2022-11-17T17:26:26.854Z,7.25
2022-11-17T17:28:58.304Z,6.53
2022-11-17T17:31:26.825Z,7.72
2022-11-17T17:33:55.029Z,7.47
2022-11-17T17:36:23.979Z,7.53
2022-11-17T17:38:55.430Z,7.72
2022-11-17T17:41:25.084Z,7.20
2022-11-17T17:43:58.521Z,6.10
2022-11-17T17:46:25.866Z,6.97
2022-11-17T17:48:52.652Z,6.97
2022-11-17T17:51:21.290Z,6.47
2022-11-17T17:53:51.914Z,8.82
2022-11-17T17:56:19.961Z,7.10
2022-11-17T17:58:51.166Z,7.38
2022-11-17T18:01:24.470Z,8.00
2022-11-17T18:03:53.796Z,8.00
2022-11-17T18:06:22.308Z,7.13
2022-11-17T18:08:49.968Z,6.90
2022-11-17T18:11:19.789Z,7.90
2022-11-17T18:13:49.223Z,7.25
2022-11-17T18:16:23.218Z,7.05
2022-11-17T18:18:55.084Z,7.07
2022-11-17T18:21:21.850Z,6.82
2022-11-17T18:23:48.626Z,7.30
2022-11-17T18:26:18.282Z,7.82
2022-11-17T18:28:53.915Z,7.50
2022-11-17T18:31:22.555Z,7.30
2022-11-17T18:34:18.989Z,7.00
2022-11-17T18:36:45.718Z,7.03
2022-11-17T18:39:12.637Z,7.90
2022-11-17T18:41:39.410Z,7.57
2022-11-17T18:44:06.247Z,7.68
2022-11-17T18:46:33.870Z,7.40
2022-11-17T18:49:00.986Z,7.18
2022-11-17T18:51:29.977Z,7.85
2022-11-17T18:53:59.143Z,8.18
2022-11-17T18:56:28.314Z,7.47
2022-11-17T18:58:55.511Z,7.38
2022-11-17T19:01:24.589Z,7.85
2022-11-17T19:03:53.490Z,7.55
2022-11-17T19:06:22.022Z,7.80
2022-11-17T19:08:49.558Z,7.70
2022-11-17T19:11:17.599Z,8.40
2022-11-17T19:13:44.349Z,8.32
2022-11-17T19:16:18.753Z,8.18
2022-11-17T19:18:47.606Z,8.00
2022-11-17T19:21:17.735Z,8.00
2022-11-17T19:23:51.131Z,8.32
2022-11-17T19:26:27.335Z,7.00
2022-11-17T19:28:58.889Z,8.07
2022-11-17T19:31:26.229Z,8.45
2022-11-17T19:33:54.335Z,8.57
2022-11-17T19:36:23.921Z,8.38
2022-11-17T19:38:55.845Z,9.15
2022-11-17T19:41:36.587Z,8.65
2022-11-17T19:44:05.714Z,8.35
2022-11-17T19:46:33.234Z,9.18
2022-11-17T19:49:00.468Z,8.77
2022-11-17T19:51:29.530Z,8.77
2022-11-17T19:54:16.537Z,9.48
2022-11-17T19:56:43.317Z,9.05
2022-11-17T19:59:16.491Z,8.98
2022-11-17T20:01:44.110Z,8.00
2022-11-17T20:04:10.834Z,9.13
2022-11-17T20:06:38.970Z,9.60
2022-11-17T20:09:11.395Z,9.02
2022-11-17T20:11:38.510Z,8.77
2022-11-17T20:14:05.253Z,9.48
2022-11-17T20:16:32.301Z,8.00
2022-11-17T20:19:01.440Z,10.02
2022-11-17T20:21:29.619Z,10.57
2022-11-17T20:23:57.431Z,9.82
2022-11-17T20:26:26.632Z,10.10
2022-11-17T20:28:54.149Z,9.45
2022-11-17T20:31:21.717Z,9.80
2022-11-17T20:33:49.104Z,9.73
2022-11-17T20:36:21.233Z,10.02
2022-11-17T20:38:51.256Z,9.82
2022-11-17T20:41:18.129Z,9.93
2022-11-17T20:43:48.197Z,10.75
2022-11-17T20:46:14.981Z,10.07
2022-11-17T20:48:41.704Z,10.77
2022-11-17T20:51:14.043Z,10.82
2022-11-17T20:53:40.921Z,11.40
2022-11-17T20:56:10.620Z,11.02
2022-11-17T20:58:37.968Z,12.52
2022-11-17T21:01:09.859Z,11.75
2022-11-17T21:03:36.794Z,11.98
2022-11-17T21:06:04.687Z,12.18
2022-11-17T21:08:34.785Z,13.07
2022-11-17T21:11:04.605Z,13.35
2022-11-17T21:13:35.840Z,14.10
2022-11-17T21:16:10.625Z,12.85
2022-11-17T21:18:39.358Z,14.23
2022-11-17T21:21:09.194Z,14.02
2022-11-17T21:23:37.745Z,13.82
2022-11-17T21:26:06.754Z,13.88
2022-11-17T21:28:34.626Z,14.27
2022-11-17T21:31:28.689Z,13.60
2022-11-17T21:34:01.058Z,14.07
2022-11-17T21:36:29.879Z,14.48
2022-11-17T21:38:57.153Z,14.68
2022-11-17T21:41:26.461Z,13.95
2022-11-17T21:43:55.226Z,13.48
2022-11-17T21:46:24.179Z,12.70
2022-11-17T21:48:52.149Z,14.65
2022-11-17T21:51:26.859Z,13.85
2022-11-17T21:53:58.371Z,12.63
2022-11-17T21:56:26.912Z,14.80
2022-11-17T21:58:58.584Z,13.15
2022-11-17T22:01:25.815Z,14.38
2022-11-17T22:03:52.592Z,13.90
2022-11-17T22:06:22.770Z,14.23
2022-11-17T22:08:50.539Z,12.88
2022-11-17T22:11:35.231Z,13.65
2022-11-17T22:14:15.645Z,14.88
2022-11-17T22:16:47.466Z,13.68
2022-11-17T22:19:16.280Z,13.90
2022-11-17T22:21:44.173Z,14.60
2022-11-17T22:24:12.091Z,13.25
2022-11-17T22:26:41.128Z,13.80
2022-11-17T22:29:15.411Z,15.85
2022-11-17T22:31:42.645Z,13.90
2022-11-17T22:34:09.521Z,14.20
2022-11-17T22:36:36.528Z,14.65
2022-11-17T22:39:04.017Z,14.77
2022-11-17T22:41:31.229Z,13.60
2022-11-17T22:43:58.316Z,14.05
2022-11-17T22:46:27.260Z,13.18
2022-11-17T22:48:54.293Z,11.77
2022-11-17T22:51:40.244Z,12.02
2022-11-17T22:54:07.829Z,12.02
2022-11-17T22:56:35.218Z,13.35
2022-11-17T22:59:02.020Z,12.13
2022-11-17T23:01:28.925Z,11.60
2022-11-17T23:03:55.604Z,12.00
2022-11-17T23:06:22.813Z,12.48
2022-11-17T23:08:50.356Z,11.85
2022-11-17T23:14:09.254Z,9.95
2022-11-17T23:16:37.403Z,10.82
2022-11-17T23:19:05.248Z,10.57
2022-11-17T23:21:32.049Z,11.38
2022-11-17T23:23:58.870Z,10.43
2022-11-17T23:26:25.723Z,10.50
2022-11-17T23:28:52.702Z,10.30
2022-11-17T23:31:19.717Z,11.18
2022-11-17T23:33:47.615Z,10.18
2022-11-17T23:36:20.076Z,9.80
2022-11-17T23:38:47.763Z,10.80
2022-11-17T23:41:17.112Z,10.13
2022-11-17T23:43:44.167Z,9.63
2022-11-17T23:46:14.013Z,10.60
2022-11-17T23:48:41.397Z,11.98
2022-11-17T23:51:10.626Z,10.68
2022-11-17T23:53:37.703Z,11.18
2022-11-17T23:56:05.490Z,10.65
2022-11-17T23:58:32.542Z,10.93
